Terminal Aerodrome Forecast
Issued by NWS

Home | Current Version | Previous Version | Text Only | Print | Product List | Glossary On
Versions: 1 2 3 4 5 6 7 8 9 10 11 12 13 14 15 16 17 18 19 20
280
FTUS41 KBGM 270520
TAFRME
TAF
KRME 270520Z 2706/2806 12005KT P6SM SCT070
      TEMPO 2708/2712 3SM BR
     FM271200 23005KT P6SM SCT045 OVC080
      TEMPO 2712/2716 -SHRA OVC045
     FM271600 26010KT P6SM BKN060
      TEMPO 2718/2722 -SHRA OVC040
     FM280300 24005KT P6SM FEW080=

USA.gov is the U.S. government's official web portal to all federal, state and local government web resources and services.